sensor_id;sensor_type;location;lat;lon;timestamp;P1;durP1;ratioP1;P2;durP2;ratioP2
5704;SDS011;2877;48.238;11.160;2022-07-05T00:01:41;3.63;;;3.20;;
5704;SDS011;2877;48.238;11.160;2022-07-05T00:04:07;5.47;;;3.20;;
5704;SDS011;2877;48.238;11.160;2022-07-05T00:06:33;3.23;;;2.93;;
5704;SDS011;2877;48.238;11.160;2022-07-05T00:08:58;3.77;;;3.47;;
5704;SDS011;2877;48.238;11.160;2022-07-05T00:11:24;3.73;;;2.87;;
5704;SDS011;2877;48.238;11.160;2022-07-05T00:13:49;4.20;;;3.80;;
5704;SDS011;2877;48.238;11.160;2022-07-05T00:16:15;3.87;;;3.00;;
5704;SDS011;2877;48.238;11.160;2022-07-05T00:18:41;7.10;;;2.97;;
5704;SDS011;2877;48.238;11.160;2022-07-05T00:21:06;3.17;;;2.93;;
5704;SDS011;2877;48.238;11.160;2022-07-05T00:23:32;3.17;;;2.80;;
5704;SDS011;2877;48.238;11.160;2022-07-05T00:25:58;3.17;;;2.93;;
5704;SDS011;2877;48.238;11.160;2022-07-05T00:28:23;4.63;;;3.10;;
5704;SDS011;2877;48.238;11.160;2022-07-05T00:30:49;3.00;;;2.80;;
5704;SDS011;2877;48.238;11.160;2022-07-05T00:33:14;3.60;;;2.40;;
5704;SDS011;2877;48.238;11.160;2022-07-05T00:35:40;3.30;;;2.87;;
5704;SDS011;2877;48.238;11.160;2022-07-05T00:38:06;3.63;;;2.97;;
5704;SDS011;2877;48.238;11.160;2022-07-05T00:40:31;3.20;;;2.90;;
5704;SDS011;2877;48.238;11.160;2022-07-05T00:42:57;3.80;;;2.50;;
5704;SDS011;2877;48.238;11.160;2022-07-05T00:45:23;6.80;;;2.57;;
5704;SDS011;2877;48.238;11.160;2022-07-05T00:47:48;2.90;;;2.70;;
5704;SDS011;2877;48.238;11.160;2022-07-05T00:50:14;2.90;;;2.70;;
5704;SDS011;2877;48.238;11.160;2022-07-05T00:52:40;4.87;;;2.13;;
5704;SDS011;2877;48.238;11.160;2022-07-05T00:55:05;3.23;;;2.60;;
5704;SDS011;2877;48.238;11.160;2022-07-05T00:57:32;3.30;;;2.50;;
5704;SDS011;2877;48.238;11.160;2022-07-05T00:59:58;3.20;;;2.63;;
5704;SDS011;2877;48.238;11.160;2022-07-05T01:02:24;5.53;;;2.90;;
5704;SDS011;2877;48.238;11.160;2022-07-05T01:04:50;3.10;;;2.70;;
5704;SDS011;2877;48.238;11.160;2022-07-05T01:07:17;3.00;;;2.67;;
5704;SDS011;2877;48.238;11.160;2022-07-05T01:09:45;2.53;;;2.20;;
5704;SDS011;2877;48.238;11.160;2022-07-05T01:12:10;3.13;;;2.40;;
5704;SDS011;2877;48.238;11.160;2022-07-05T01:14:36;3.07;;;2.20;;
5704;SDS011;2877;48.238;11.160;2022-07-05T01:17:02;2.73;;;2.20;;
5704;SDS011;2877;48.238;11.160;2022-07-05T01:19:28;3.00;;;2.33;;
5704;SDS011;2877;48.238;11.160;2022-07-05T01:21:53;2.47;;;2.27;;
5704;SDS011;2877;48.238;11.160;2022-07-05T01:24:19;3.23;;;2.60;;
5704;SDS011;2877;48.238;11.160;2022-07-05T01:26:48;6.43;;;2.83;;
5704;SDS011;2877;48.238;11.160;2022-07-05T01:29:14;3.40;;;2.10;;
5704;SDS011;2877;48.238;11.160;2022-07-05T01:31:40;2.20;;;2.10;;
5704;SDS011;2877;48.238;11.160;2022-07-05T01:34:06;2.67;;;2.33;;
5704;SDS011;2877;48.238;11.160;2022-07-05T01:36:32;3.70;;;2.10;;
5704;SDS011;2877;48.238;11.160;2022-07-05T01:38:59;4.40;;;2.80;;
5704;SDS011;2877;48.238;11.160;2022-07-05T01:41:26;2.80;;;2.40;;
5704;SDS011;2877;48.238;11.160;2022-07-05T01:43:51;4.70;;;2.77;;
5704;SDS011;2877;48.238;11.160;2022-07-05T01:46:17;6.27;;;2.80;;
5704;SDS011;2877;48.238;11.160;2022-07-05T01:48:47;6.27;;;2.90;;
5704;SDS011;2877;48.238;11.160;2022-07-05T01:51:18;2.70;;;2.50;;
5704;SDS011;2877;48.238;11.160;2022-07-05T01:53:47;3.00;;;2.50;;
5704;SDS011;2877;48.238;11.160;2022-07-05T01:56:16;10.63;;;2.90;;
5704;SDS011;2877;48.238;11.160;2022-07-05T01:58:42;4.87;;;2.63;;
5704;SDS011;2877;48.238;11.160;2022-07-05T02:01:09;2.37;;;2.17;;
5704;SDS011;2877;48.238;11.160;2022-07-05T02:03:35;2.30;;;2.10;;
5704;SDS011;2877;48.238;11.160;2022-07-05T02:06:01;6.50;;;2.80;;
5704;SDS011;2877;48.238;11.160;2022-07-05T02:08:30;2.37;;;2.17;;
5704;SDS011;2877;48.238;11.160;2022-07-05T02:10:56;3.13;;;2.70;;
5704;SDS011;2877;48.238;11.160;2022-07-05T02:13:22;8.37;;;2.50;;
5704;SDS011;2877;48.238;11.160;2022-07-05T02:15:48;6.60;;;2.60;;
5704;SDS011;2877;48.238;11.160;2022-07-05T02:18:14;3.00;;;2.67;;
5704;SDS011;2877;48.238;11.160;2022-07-05T02:20:39;3.37;;;2.80;;
5704;SDS011;2877;48.238;11.160;2022-07-05T02:23:06;7.13;;;2.80;;
5704;SDS011;2877;48.238;11.160;2022-07-05T02:25:32;2.97;;;2.47;;
5704;SDS011;2877;48.238;11.160;2022-07-05T02:27:58;4.83;;;3.10;;
5704;SDS011;2877;48.238;11.160;2022-07-05T02:30:24;5.70;;;4.93;;
5704;SDS011;2877;48.238;11.160;2022-07-05T02:32:49;2.80;;;2.60;;
5704;SDS011;2877;48.238;11.160;2022-07-05T02:35:15;5.00;;;2.80;;
5704;SDS011;2877;48.238;11.160;2022-07-05T02:37:41;4.17;;;2.80;;
5704;SDS011;2877;48.238;11.160;2022-07-05T02:40:07;2.90;;;2.70;;
5704;SDS011;2877;48.238;11.160;2022-07-05T02:42:37;2.90;;;2.30;;
5704;SDS011;2877;48.238;11.160;2022-07-05T02:45:04;2.83;;;2.37;;
5704;SDS011;2877;48.238;11.160;2022-07-05T02:47:31;2.83;;;2.60;;
5704;SDS011;2877;48.238;11.160;2022-07-05T02:50:18;5.63;;;2.80;;
5704;SDS011;2877;48.238;11.160;2022-07-05T02:52:43;4.20;;;2.73;;
5704;SDS011;2877;48.238;11.160;2022-07-05T02:55:09;4.07;;;2.57;;
5704;SDS011;2877;48.238;11.160;2022-07-05T02:57:36;2.90;;;2.60;;
5704;SDS011;2877;48.238;11.160;2022-07-05T03:00:03;5.57;;;3.13;;
5704;SDS011;2877;48.238;11.160;2022-07-05T03:02:30;4.37;;;2.63;;
5704;SDS011;2877;48.238;11.160;2022-07-05T03:04:55;2.77;;;2.50;;
5704;SDS011;2877;48.238;11.160;2022-07-05T03:07:21;4.07;;;2.73;;
5704;SDS011;2877;48.238;11.160;2022-07-05T03:09:47;4.70;;;2.70;;
5704;SDS011;2877;48.238;11.160;2022-07-05T03:12:12;4.00;;;2.77;;
5704;SDS011;2877;48.238;11.160;2022-07-05T03:14:38;2.97;;;2.77;;
5704;SDS011;2877;48.238;11.160;2022-07-05T03:17:03;3.50;;;2.93;;
5704;SDS011;2877;48.238;11.160;2022-07-05T03:19:29;3.57;;;3.00;;
5704;SDS011;2877;48.238;11.160;2022-07-05T03:21:54;2.90;;;2.70;;
5704;SDS011;2877;48.238;11.160;2022-07-05T03:24:20;3.10;;;2.83;;
5704;SDS011;2877;48.238;11.160;2022-07-05T03:26:45;7.00;;;3.50;;
5704;SDS011;2877;48.238;11.160;2022-07-05T03:29:11;3.00;;;2.80;;
5704;SDS011;2877;48.238;11.160;2022-07-05T03:31:36;3.93;;;3.33;;
5704;SDS011;2877;48.238;11.160;2022-07-05T03:34:02;3.33;;;3.00;;
5704;SDS011;2877;48.238;11.160;2022-07-05T03:36:28;3.90;;;3.50;;
5704;SDS011;2877;48.238;11.160;2022-07-05T03:38:53;3.30;;;2.90;;
5704;SDS011;2877;48.238;11.160;2022-07-05T03:41:19;3.60;;;2.90;;
5704;SDS011;2877;48.238;11.160;2022-07-05T03:43:44;5.20;;;2.97;;
5704;SDS011;2877;48.238;11.160;2022-07-05T03:46:10;2.83;;;2.63;;
5704;SDS011;2877;48.238;11.160;2022-07-05T03:48:35;3.43;;;2.70;;
5704;SDS011;2877;48.238;11.160;2022-07-05T03:51:01;4.10;;;2.50;;
5704;SDS011;2877;48.238;11.160;2022-07-05T03:53:26;3.27;;;2.53;;
5704;SDS011;2877;48.238;11.160;2022-07-05T03:55:52;6.87;;;2.73;;
5704;SDS011;2877;48.238;11.160;2022-07-05T03:58:18;7.83;;;2.90;;
5704;SDS011;2877;48.238;11.160;2022-07-05T04:00:43;3.20;;;2.90;;
5704;SDS011;2877;48.238;11.160;2022-07-05T04:03:09;4.17;;;2.50;;
5704;SDS011;2877;48.238;11.160;2022-07-05T04:05:34;3.47;;;3.00;;
5704;SDS011;2877;48.238;11.160;2022-07-05T04:08:00;3.03;;;2.80;;
5704;SDS011;2877;48.238;11.160;2022-07-05T04:10:26;4.40;;;2.23;;
5704;SDS011;2877;48.238;11.160;2022-07-05T04:12:51;4.23;;;2.40;;
5704;SDS011;2877;48.238;11.160;2022-07-05T04:15:17;3.93;;;2.83;;
5704;SDS011;2877;48.238;11.160;2022-07-05T04:17:49;4.23;;;2.80;;
5704;SDS011;2877;48.238;11.160;2022-07-05T04:20:16;3.03;;;2.53;;
5704;SDS011;2877;48.238;11.160;2022-07-05T04:22:42;2.93;;;2.63;;
5704;SDS011;2877;48.238;11.160;2022-07-05T04:25:08;5.90;;;2.53;;
5704;SDS011;2877;48.238;11.160;2022-07-05T04:27:52;2.87;;;2.63;;
5704;SDS011;2877;48.238;11.160;2022-07-05T04:30:19;7.70;;;3.13;;
5704;SDS011;2877;48.238;11.160;2022-07-05T04:32:46;3.30;;;3.00;;
5704;SDS011;2877;48.238;11.160;2022-07-05T04:35:12;3.23;;;2.90;;
5704;SDS011;2877;48.238;11.160;2022-07-05T04:37:38;4.03;;;3.50;;
5704;SDS011;2877;48.238;11.160;2022-07-05T04:40:05;3.97;;;2.93;;
5704;SDS011;2877;48.238;11.160;2022-07-05T04:42:33;7.20;;;3.40;;
5704;SDS011;2877;48.238;11.160;2022-07-05T04:44:59;5.80;;;3.80;;
5704;SDS011;2877;48.238;11.160;2022-07-05T04:47:25;4.07;;;3.50;;
5704;SDS011;2877;48.238;11.160;2022-07-05T04:49:51;6.23;;;4.30;;
5704;SDS011;2877;48.238;11.160;2022-07-05T04:52:17;5.93;;;4.10;;
5704;SDS011;2877;48.238;11.160;2022-07-05T04:54:43;7.20;;;4.30;;
5704;SDS011;2877;48.238;11.160;2022-07-05T04:57:08;4.90;;;4.40;;
5704;SDS011;2877;48.238;11.160;2022-07-05T04:59:34;5.77;;;4.63;;
5704;SDS011;2877;48.238;11.160;2022-07-05T05:01:59;10.97;;;4.77;;
5704;SDS011;2877;48.238;11.160;2022-07-05T05:04:25;4.93;;;4.50;;
5704;SDS011;2877;48.238;11.160;2022-07-05T05:06:51;10.70;;;4.47;;
5704;SDS011;2877;48.238;11.160;2022-07-05T05:09:16;8.17;;;5.47;;
5704;SDS011;2877;48.238;11.160;2022-07-05T05:11:42;6.93;;;5.47;;
5704;SDS011;2877;48.238;11.160;2022-07-05T05:14:07;7.23;;;5.40;;
5704;SDS011;2877;48.238;11.160;2022-07-05T05:16:33;7.43;;;6.23;;
5704;SDS011;2877;48.238;11.160;2022-07-05T05:18:58;5.70;;;5.20;;
5704;SDS011;2877;48.238;11.160;2022-07-05T05:21:24;11.13;;;5.70;;
5704;SDS011;2877;48.238;11.160;2022-07-05T05:23:49;9.10;;;6.07;;
5704;SDS011;2877;48.238;11.160;2022-07-05T05:26:15;7.83;;;5.67;;
5704;SDS011;2877;48.238;11.160;2022-07-05T05:28:40;9.77;;;6.50;;
5704;SDS011;2877;48.238;11.160;2022-07-05T05:31:06;12.47;;;6.97;;
5704;SDS011;2877;48.238;11.160;2022-07-05T05:33:32;10.10;;;6.77;;
5704;SDS011;2877;48.238;11.160;2022-07-05T05:35:58;7.63;;;6.17;;
5704;SDS011;2877;48.238;11.160;2022-07-05T05:38:23;7.30;;;5.53;;
5704;SDS011;2877;48.238;11.160;2022-07-05T05:40:49;10.33;;;6.70;;
5704;SDS011;2877;48.238;11.160;2022-07-05T05:43:15;6.50;;;5.80;;
5704;SDS011;2877;48.238;11.160;2022-07-05T05:45:40;13.17;;;5.97;;
5704;SDS011;2877;48.238;11.160;2022-07-05T05:48:06;9.07;;;5.60;;
5704;SDS011;2877;48.238;11.160;2022-07-05T05:50:35;7.80;;;4.93;;
5704;SDS011;2877;48.238;11.160;2022-07-05T05:53:03;7.57;;;5.03;;
5704;SDS011;2877;48.238;11.160;2022-07-05T05:55:29;5.57;;;5.00;;
5704;SDS011;2877;48.238;11.160;2022-07-05T05:57:56;6.70;;;4.50;;
5704;SDS011;2877;48.238;11.160;2022-07-05T06:00:34;15.73;;;4.80;;
5704;SDS011;2877;48.238;11.160;2022-07-05T06:03:00;7.13;;;4.23;;
5704;SDS011;2877;48.238;11.160;2022-07-05T06:05:26;7.10;;;4.33;;
5704;SDS011;2877;48.238;11.160;2022-07-05T06:07:52;5.50;;;4.63;;
5704;SDS011;2877;48.238;11.160;2022-07-05T06:10:20;5.73;;;4.10;;
5704;SDS011;2877;48.238;11.160;2022-07-05T06:12:48;10.50;;;3.90;;
5704;SDS011;2877;48.238;11.160;2022-07-05T06:15:15;15.13;;;4.67;;
5704;SDS011;2877;48.238;11.160;2022-07-05T06:17:41;5.57;;;3.83;;
5704;SDS011;2877;48.238;11.160;2022-07-05T06:20:08;4.97;;;3.77;;
5704;SDS011;2877;48.238;11.160;2022-07-05T06:22:38;4.47;;;3.40;;
5704;SDS011;2877;48.238;11.160;2022-07-05T06:25:04;8.13;;;3.50;;
5704;SDS011;2877;48.238;11.160;2022-07-05T06:27:30;6.63;;;3.50;;
5704;SDS011;2877;48.238;11.160;2022-07-05T06:29:56;5.00;;;3.43;;
5704;SDS011;2877;48.238;11.160;2022-07-05T06:32:22;9.30;;;4.37;;
5704;SDS011;2877;48.238;11.160;2022-07-05T06:34:48;3.40;;;3.10;;
5704;SDS011;2877;48.238;11.160;2022-07-05T06:37:14;3.73;;;3.40;;
5704;SDS011;2877;48.238;11.160;2022-07-05T06:39:40;3.53;;;3.23;;
5704;SDS011;2877;48.238;11.160;2022-07-05T06:42:05;3.13;;;2.83;;
5704;SDS011;2877;48.238;11.160;2022-07-05T06:44:31;4.13;;;3.77;;
5704;SDS011;2877;48.238;11.160;2022-07-05T06:46:58;4.33;;;2.63;;
5704;SDS011;2877;48.238;11.160;2022-07-05T06:49:23;3.13;;;2.83;;
5704;SDS011;2877;48.238;11.160;2022-07-05T06:51:49;7.40;;;3.10;;
5704;SDS011;2877;48.238;11.160;2022-07-05T06:54:14;5.13;;;3.30;;
5704;SDS011;2877;48.238;11.160;2022-07-05T06:56:40;3.20;;;2.97;;
5704;SDS011;2877;48.238;11.160;2022-07-05T06:59:05;5.50;;;3.37;;
5704;SDS011;2877;48.238;11.160;2022-07-05T07:01:31;7.50;;;3.40;;
5704;SDS011;2877;48.238;11.160;2022-07-05T07:03:57;3.33;;;2.40;;
5704;SDS011;2877;48.238;11.160;2022-07-05T07:06:25;6.10;;;2.03;;
5704;SDS011;2877;48.238;11.160;2022-07-05T07:08:51;2.60;;;2.40;;
5704;SDS011;2877;48.238;11.160;2022-07-05T07:11:35;3.73;;;2.20;;
5704;SDS011;2877;48.238;11.160;2022-07-05T07:14:00;2.87;;;1.93;;
5704;SDS011;2877;48.238;11.160;2022-07-05T07:16:26;4.53;;;2.10;;
5704;SDS011;2877;48.238;11.160;2022-07-05T07:18:53;3.03;;;2.37;;
5704;SDS011;2877;48.238;11.160;2022-07-05T07:21:18;2.13;;;1.97;;
5704;SDS011;2877;48.238;11.160;2022-07-05T07:23:44;2.60;;;2.17;;
5704;SDS011;2877;48.238;11.160;2022-07-05T07:26:09;7.20;;;4.67;;
5704;SDS011;2877;48.238;11.160;2022-07-05T07:28:35;2.27;;;2.00;;
5704;SDS011;2877;48.238;11.160;2022-07-05T07:31:00;8.43;;;2.73;;
5704;SDS011;2877;48.238;11.160;2022-07-05T07:33:26;15.03;;;2.33;;
5704;SDS011;2877;48.238;11.160;2022-07-05T07:35:52;2.13;;;1.87;;
5704;SDS011;2877;48.238;11.160;2022-07-05T07:38:18;2.10;;;2.00;;
5704;SDS011;2877;48.238;11.160;2022-07-05T07:40:43;2.87;;;2.37;;
5704;SDS011;2877;48.238;11.160;2022-07-05T07:43:09;2.97;;;2.03;;
5704;SDS011;2877;48.238;11.160;2022-07-05T07:45:34;3.03;;;1.67;;
5704;SDS011;2877;48.238;11.160;2022-07-05T07:48:00;3.43;;;2.13;;
5704;SDS011;2877;48.238;11.160;2022-07-05T07:50:26;3.13;;;1.70;;
5704;SDS011;2877;48.238;11.160;2022-07-05T07:52:51;2.20;;;1.83;;
5704;SDS011;2877;48.238;11.160;2022-07-05T07:55:17;2.30;;;2.10;;
5704;SDS011;2877;48.238;11.160;2022-07-05T07:57:43;4.20;;;1.90;;
5704;SDS011;2877;48.238;11.160;2022-07-05T08:00:08;3.37;;;1.90;;
5704;SDS011;2877;48.238;11.160;2022-07-05T08:02:34;1.70;;;1.30;;
5704;SDS011;2877;48.238;11.160;2022-07-05T08:04:59;2.10;;;1.60;;
5704;SDS011;2877;48.238;11.160;2022-07-05T08:07:26;3.03;;;1.80;;
5704;SDS011;2877;48.238;11.160;2022-07-05T08:09:52;1.87;;;1.40;;
5704;SDS011;2877;48.238;11.160;2022-07-05T08:12:18;3.40;;;1.80;;
5704;SDS011;2877;48.238;11.160;2022-07-05T08:14:44;2.53;;;1.60;;
5704;SDS011;2877;48.238;11.160;2022-07-05T08:17:11;2.73;;;1.40;;
5704;SDS011;2877;48.238;11.160;2022-07-05T08:19:37;4.77;;;1.60;;
5704;SDS011;2877;48.238;11.160;2022-07-05T08:22:21;1.73;;;1.60;;
5704;SDS011;2877;48.238;11.160;2022-07-05T08:24:47;3.00;;;1.40;;
5704;SDS011;2877;48.238;11.160;2022-07-05T08:27:13;3.60;;;2.10;;
5704;SDS011;2877;48.238;11.160;2022-07-05T08:29:38;2.23;;;1.67;;
5704;SDS011;2877;48.238;11.160;2022-07-05T08:32:04;1.50;;;1.40;;
5704;SDS011;2877;48.238;11.160;2022-07-05T08:34:30;1.63;;;1.53;;
5704;SDS011;2877;48.238;11.160;2022-07-05T08:36:56;9.60;;;1.90;;
5704;SDS011;2877;48.238;11.160;2022-07-05T08:39:22;1.30;;;1.20;;
5704;SDS011;2877;48.238;11.160;2022-07-05T08:41:48;3.53;;;1.50;;
5704;SDS011;2877;48.238;11.160;2022-07-05T08:44:15;2.70;;;1.20;;
5704;SDS011;2877;48.238;11.160;2022-07-05T08:46:45;2.87;;;2.00;;
5704;SDS011;2877;48.238;11.160;2022-07-05T08:49:13;2.13;;;1.93;;
5704;SDS011;2877;48.238;11.160;2022-07-05T08:51:40;1.87;;;1.53;;
5704;SDS011;2877;48.238;11.160;2022-07-05T08:54:08;3.27;;;1.80;;
5704;SDS011;2877;48.238;11.160;2022-07-05T08:56:37;1.63;;;1.50;;
5704;SDS011;2877;48.238;11.160;2022-07-05T08:59:05;4.03;;;1.60;;
5704;SDS011;2877;48.238;11.160;2022-07-05T09:01:31;5.17;;;1.80;;
5704;SDS011;2877;48.238;11.160;2022-07-05T09:04:00;2.30;;;1.83;;
5704;SDS011;2877;48.238;11.160;2022-07-05T09:06:28;2.90;;;1.70;;
5704;SDS011;2877;48.238;11.160;2022-07-05T09:08:57;2.77;;;1.30;;
5704;SDS011;2877;48.238;11.160;2022-07-05T09:11:37;4.37;;;1.40;;
5704;SDS011;2877;48.238;11.160;2022-07-05T09:14:05;2.87;;;1.20;;
5704;SDS011;2877;48.238;11.160;2022-07-05T09:16:52;3.03;;;1.23;;
5704;SDS011;2877;48.238;11.160;2022-07-05T09:19:18;5.13;;;1.30;;
5704;SDS011;2877;48.238;11.160;2022-07-05T09:21:44;1.40;;;1.27;;
5704;SDS011;2877;48.238;11.160;2022-07-05T09:24:10;1.80;;;1.70;;
5704;SDS011;2877;48.238;11.160;2022-07-05T09:26:37;2.30;;;1.50;;
5704;SDS011;2877;48.238;11.160;2022-07-05T09:29:05;3.80;;;1.80;;
5704;SDS011;2877;48.238;11.160;2022-07-05T09:31:36;1.40;;;1.17;;
5704;SDS011;2877;48.238;11.160;2022-07-05T09:34:06;4.40;;;1.40;;
5704;SDS011;2877;48.238;11.160;2022-07-05T09:44:53;5.70;;;3.97;;
5704;SDS011;2877;48.238;11.160;2022-07-05T09:47:20;4.10;;;2.07;;
5704;SDS011;2877;48.238;11.160;2022-07-05T09:49:49;3.47;;;2.57;;
5704;SDS011;2877;48.238;11.160;2022-07-05T09:52:38;9.10;;;2.20;;
5704;SDS011;2877;48.238;11.160;2022-07-05T09:57:33;2.07;;;1.87;;
5704;SDS011;2877;48.238;11.160;2022-07-05T10:00:01;2.30;;;1.53;;
5704;SDS011;2877;48.238;11.160;2022-07-05T10:02:34;3.00;;;1.40;;
5704;SDS011;2877;48.238;11.160;2022-07-05T10:05:07;2.30;;;1.47;;
5704;SDS011;2877;48.238;11.160;2022-07-05T10:07:32;2.90;;;1.50;;
5704;SDS011;2877;48.238;11.160;2022-07-05T10:09:59;2.60;;;1.23;;
5704;SDS011;2877;48.238;11.160;2022-07-05T10:12:25;1.40;;;1.30;;
5704;SDS011;2877;48.238;11.160;2022-07-05T10:14:51;2.07;;;1.47;;
5704;SDS011;2877;48.238;11.160;2022-07-05T10:17:17;2.77;;;1.53;;
5704;SDS011;2877;48.238;11.160;2022-07-05T10:19:43;2.00;;;1.30;;
5704;SDS011;2877;48.238;11.160;2022-07-05T10:22:11;3.27;;;1.50;;
5704;SDS011;2877;48.238;11.160;2022-07-05T10:24:37;3.70;;;1.50;;
5704;SDS011;2877;48.238;11.160;2022-07-05T10:27:07;1.63;;;1.43;;
5704;SDS011;2877;48.238;11.160;2022-07-05T10:29:34;2.03;;;1.47;;
5704;SDS011;2877;48.238;11.160;2022-07-05T10:32:01;2.10;;;1.43;;
5704;SDS011;2877;48.238;11.160;2022-07-05T10:34:28;1.83;;;1.40;;
5704;SDS011;2877;48.238;11.160;2022-07-05T10:36:57;1.63;;;1.53;;
5704;SDS011;2877;48.238;11.160;2022-07-05T10:39:22;3.00;;;1.40;;
5704;SDS011;2877;48.238;11.160;2022-07-05T10:41:50;5.50;;;1.43;;
5704;SDS011;2877;48.238;11.160;2022-07-05T10:44:26;2.43;;;1.60;;
5704;SDS011;2877;48.238;11.160;2022-07-05T10:47:09;2.60;;;1.70;;
5704;SDS011;2877;48.238;11.160;2022-07-05T10:49:36;1.70;;;1.60;;
5704;SDS011;2877;48.238;11.160;2022-07-05T10:52:02;1.30;;;1.20;;
5704;SDS011;2877;48.238;11.160;2022-07-05T10:54:28;1.50;;;1.40;;
5704;SDS011;2877;48.238;11.160;2022-07-05T11:00:05;1.90;;;1.53;;
5704;SDS011;2877;48.238;11.160;2022-07-05T11:02:31;2.73;;;1.67;;
5704;SDS011;2877;48.238;11.160;2022-07-05T11:04:57;1.87;;;1.37;;
5704;SDS011;2877;48.238;11.160;2022-07-05T11:07:57;1.83;;;1.30;;
5704;SDS011;2877;48.238;11.160;2022-07-05T11:10:25;2.93;;;1.20;;
5704;SDS011;2877;48.238;11.160;2022-07-05T11:12:50;2.60;;;1.50;;
5704;SDS011;2877;48.238;11.160;2022-07-05T11:15:16;1.60;;;1.40;;
5704;SDS011;2877;48.238;11.160;2022-07-05T11:17:42;1.83;;;1.40;;
5704;SDS011;2877;48.238;11.160;2022-07-05T11:20:17;2.33;;;1.27;;
5704;SDS011;2877;48.238;11.160;2022-07-05T11:25:29;1.30;;;1.20;;
5704;SDS011;2877;48.238;11.160;2022-07-05T11:28:07;2.40;;;1.37;;
5704;SDS011;2877;48.238;11.160;2022-07-05T11:30:51;1.67;;;1.57;;
5704;SDS011;2877;48.238;11.160;2022-07-05T11:36:19;1.40;;;1.30;;
5704;SDS011;2877;48.238;11.160;2022-07-05T11:39:08;1.87;;;1.30;;
5704;SDS011;2877;48.238;11.160;2022-07-05T11:41:35;1.10;;;1.10;;
5704;SDS011;2877;48.238;11.160;2022-07-05T11:44:03;1.83;;;1.50;;
5704;SDS011;2877;48.238;11.160;2022-07-05T11:46:32;1.60;;;1.50;;
5704;SDS011;2877;48.238;11.160;2022-07-05T11:48:59;1.80;;;1.70;;
5704;SDS011;2877;48.238;11.160;2022-07-05T11:51:25;2.70;;;1.20;;
5704;SDS011;2877;48.238;11.160;2022-07-05T11:53:51;2.10;;;1.23;;
5704;SDS011;2877;48.238;11.160;2022-07-05T11:56:16;1.43;;;1.30;;
5704;SDS011;2877;48.238;11.160;2022-07-05T11:58:43;4.70;;;1.37;;
5704;SDS011;2877;48.238;11.160;2022-07-05T12:01:08;2.50;;;1.40;;
5704;SDS011;2877;48.238;11.160;2022-07-05T12:03:34;1.20;;;1.07;;
5704;SDS011;2877;48.238;11.160;2022-07-05T12:06:09;1.20;;;1.10;;
5704;SDS011;2877;48.238;11.160;2022-07-05T12:08:36;1.40;;;1.20;;
5704;SDS011;2877;48.238;11.160;2022-07-05T12:11:01;1.30;;;1.20;;
5704;SDS011;2877;48.238;11.160;2022-07-05T12:13:47;1.23;;;1.20;;
5704;SDS011;2877;48.238;11.160;2022-07-05T12:16:14;2.43;;;1.33;;
5704;SDS011;2877;48.238;11.160;2022-07-05T12:18:50;2.10;;;1.10;;
5704;SDS011;2877;48.238;11.160;2022-07-05T12:21:20;2.43;;;0.93;;
5704;SDS011;2877;48.238;11.160;2022-07-05T12:23:48;1.90;;;1.47;;
5704;SDS011;2877;48.238;11.160;2022-07-05T12:26:14;1.47;;;1.37;;
5704;SDS011;2877;48.238;11.160;2022-07-05T12:28:41;1.20;;;1.10;;
5704;SDS011;2877;48.238;11.160;2022-07-05T12:31:15;1.00;;;1.00;;
5704;SDS011;2877;48.238;11.160;2022-07-05T12:33:43;1.00;;;0.93;;
5704;SDS011;2877;48.238;11.160;2022-07-05T12:36:13;2.30;;;1.00;;
5704;SDS011;2877;48.238;11.160;2022-07-05T12:38:43;1.17;;;1.17;;
5704;SDS011;2877;48.238;11.160;2022-07-05T12:41:09;6.83;;;1.47;;
5704;SDS011;2877;48.238;11.160;2022-07-05T12:43:49;1.20;;;1.10;;
5704;SDS011;2877;48.238;11.160;2022-07-05T12:46:14;1.43;;;1.30;;
5704;SDS011;2877;48.238;11.160;2022-07-05T12:48:40;2.93;;;1.30;;
5704;SDS011;2877;48.238;11.160;2022-07-05T12:51:06;1.33;;;1.10;;
5704;SDS011;2877;48.238;11.160;2022-07-05T12:53:33;1.23;;;1.10;;
5704;SDS011;2877;48.238;11.160;2022-07-05T12:56:22;1.47;;;1.20;;
5704;SDS011;2877;48.238;11.160;2022-07-05T12:59:08;3.43;;;1.30;;
5704;SDS011;2877;48.238;11.160;2022-07-05T13:01:37;2.43;;;1.10;;
5704;SDS011;2877;48.238;11.160;2022-07-05T13:04:09;4.70;;;1.30;;
5704;SDS011;2877;48.238;11.160;2022-07-05T13:06:45;1.03;;;1.03;;
5704;SDS011;2877;48.238;11.160;2022-07-05T13:09:11;4.50;;;1.00;;
5704;SDS011;2877;48.238;11.160;2022-07-05T13:11:38;2.00;;;1.10;;
5704;SDS011;2877;48.238;11.160;2022-07-05T13:14:05;1.47;;;1.03;;
5704;SDS011;2877;48.238;11.160;2022-07-05T13:16:31;1.60;;;0.80;;
5704;SDS011;2877;48.238;11.160;2022-07-05T13:19:11;1.00;;;1.00;;
5704;SDS011;2877;48.238;11.160;2022-07-05T13:21:37;0.87;;;0.87;;
5704;SDS011;2877;48.238;11.160;2022-07-05T13:24:04;5.10;;;1.13;;
5704;SDS011;2877;48.238;11.160;2022-07-05T13:26:30;4.37;;;1.33;;
5704;SDS011;2877;48.238;11.160;2022-07-05T13:28:56;1.00;;;1.00;;
5704;SDS011;2877;48.238;11.160;2022-07-05T13:31:22;0.90;;;0.90;;
5704;SDS011;2877;48.238;11.160;2022-07-05T13:33:47;1.27;;;1.00;;
5704;SDS011;2877;48.238;11.160;2022-07-05T13:36:13;1.23;;;1.10;;
5704;SDS011;2877;48.238;11.160;2022-07-05T13:38:38;1.23;;;1.13;;
5704;SDS011;2877;48.238;11.160;2022-07-05T13:41:04;1.03;;;1.03;;
5704;SDS011;2877;48.238;11.160;2022-07-05T13:43:29;1.00;;;1.00;;
5704;SDS011;2877;48.238;11.160;2022-07-05T13:45:55;2.80;;;1.20;;
5704;SDS011;2877;48.238;11.160;2022-07-05T13:48:20;1.20;;;1.10;;
5704;SDS011;2877;48.238;11.160;2022-07-05T13:50:46;2.17;;;1.27;;
5704;SDS011;2877;48.238;11.160;2022-07-05T13:53:12;3.37;;;1.10;;
5704;SDS011;2877;48.238;11.160;2022-07-05T13:55:37;1.27;;;1.10;;
5704;SDS011;2877;48.238;11.160;2022-07-05T13:58:03;2.83;;;1.07;;
5704;SDS011;2877;48.238;11.160;2022-07-05T14:00:29;1.80;;;1.10;;
5704;SDS011;2877;48.238;11.160;2022-07-05T14:02:54;7.43;;;1.23;;
5704;SDS011;2877;48.238;11.160;2022-07-05T14:05:20;2.83;;;1.00;;
5704;SDS011;2877;48.238;11.160;2022-07-05T14:07:46;1.33;;;1.10;;
5704;SDS011;2877;48.238;11.160;2022-07-05T14:10:13;0.97;;;0.97;;
5704;SDS011;2877;48.238;11.160;2022-07-05T14:12:39;1.23;;;1.20;;
5704;SDS011;2877;48.238;11.160;2022-07-05T14:15:05;1.10;;;1.00;;
5704;SDS011;2877;48.238;11.160;2022-07-05T14:17:31;1.10;;;1.03;;
5704;SDS011;2877;48.238;11.160;2022-07-05T14:19:57;1.20;;;1.10;;
5704;SDS011;2877;48.238;11.160;2022-07-05T14:22:22;2.93;;;1.20;;
5704;SDS011;2877;48.238;11.160;2022-07-05T14:24:48;1.50;;;1.13;;
5704;SDS011;2877;48.238;11.160;2022-07-05T14:27:13;1.77;;;1.10;;
5704;SDS011;2877;48.238;11.160;2022-07-05T14:29:39;1.47;;;1.37;;
5704;SDS011;2877;48.238;11.160;2022-07-05T14:32:05;1.33;;;1.00;;
5704;SDS011;2877;48.238;11.160;2022-07-05T14:34:30;7.17;;;1.30;;
5704;SDS011;2877;48.238;11.160;2022-07-05T14:36:56;1.50;;;1.40;;
5704;SDS011;2877;48.238;11.160;2022-07-05T14:39:24;2.93;;;1.30;;
5704;SDS011;2877;48.238;11.160;2022-07-05T14:41:50;1.87;;;1.67;;
5704;SDS011;2877;48.238;11.160;2022-07-05T14:44:15;3.33;;;1.30;;
5704;SDS011;2877;48.238;11.160;2022-07-05T14:46:41;1.53;;;1.43;;
5704;SDS011;2877;48.238;11.160;2022-07-05T14:49:06;3.17;;;1.37;;
5704;SDS011;2877;48.238;11.160;2022-07-05T14:51:32;3.83;;;1.80;;
5704;SDS011;2877;48.238;11.160;2022-07-05T14:53:58;1.10;;;0.97;;
5704;SDS011;2877;48.238;11.160;2022-07-05T14:56:23;4.30;;;1.20;;
5704;SDS011;2877;48.238;11.160;2022-07-05T14:58:49;1.37;;;1.10;;
5704;SDS011;2877;48.238;11.160;2022-07-05T15:01:15;1.30;;;1.20;;
5704;SDS011;2877;48.238;11.160;2022-07-05T15:07:04;1.47;;;1.40;;
5704;SDS011;2877;48.238;11.160;2022-07-05T15:09:30;1.27;;;1.20;;
5704;SDS011;2877;48.238;11.160;2022-07-05T15:11:56;2.03;;;1.10;;
5704;SDS011;2877;48.238;11.160;2022-07-05T15:14:21;1.80;;;1.17;;
5704;SDS011;2877;48.238;11.160;2022-07-05T15:16:47;1.83;;;1.20;;
5704;SDS011;2877;48.238;11.160;2022-07-05T15:19:12;1.43;;;1.33;;
5704;SDS011;2877;48.238;11.160;2022-07-05T15:21:38;1.33;;;1.30;;
5704;SDS011;2877;48.238;11.160;2022-07-05T15:24:04;1.60;;;1.50;;